createdAt,value
2018-06-12T00:01:26.901Z,99.90
2018-06-12T00:03:58.076Z,99.90
2018-06-12T00:06:29.847Z,99.90
2018-06-12T00:09:01.884Z,99.90
2018-06-12T00:14:04.433Z,99.90
2018-06-12T00:16:35.767Z,99.90
2018-06-12T00:19:07.198Z,99.90
2018-06-12T00:21:38.776Z,99.90
2018-06-12T00:24:10.290Z,99.90
2018-06-12T00:26:41.468Z,99.90
2018-06-12T00:29:13.028Z,99.90
2018-06-12T00:31:44.363Z,99.90
2018-06-12T00:34:15.765Z,99.90
2018-06-12T00:36:47.150Z,99.90
2018-06-12T00:39:18.547Z,99.90
2018-06-12T00:41:49.935Z,99.90
2018-06-12T00:46:52.900Z,99.90
2018-06-12T00:49:24.450Z,99.90
2018-06-12T00:51:55.865Z,99.90
2018-06-12T00:54:27.350Z,99.90
2018-06-12T00:57:09.157Z,99.90
2018-06-12T00:59:40.520Z,99.90
2018-06-12T01:02:11.969Z,99.90
2018-06-12T01:04:43.375Z,99.90
2018-06-12T01:07:14.844Z,99.90
2018-06-12T01:09:45.999Z,99.90
2018-06-12T01:12:17.298Z,99.90
2018-06-12T01:14:49.225Z,99.90
2018-06-12T01:17:21.403Z,99.90
2018-06-12T01:19:54.021Z,99.90
2018-06-12T01:22:25.618Z,99.90
2018-06-12T01:24:57.024Z,99.90
2018-06-12T01:27:28.450Z,99.90
2018-06-12T01:29:59.788Z,99.90
2018-06-12T01:32:31.080Z,99.90
2018-06-12T01:35:02.745Z,99.90
2018-06-12T01:37:34.349Z,99.90
2018-06-12T01:40:05.720Z,99.90
2018-06-12T01:42:37.251Z,99.90
2018-06-12T01:45:08.570Z,99.90
2018-06-12T01:47:39.966Z,99.90
2018-06-12T01:50:11.641Z,99.90
2018-06-12T01:52:43.246Z,99.90
2018-06-12T01:55:15.191Z,99.90
2018-06-12T01:57:47.443Z,99.90
2018-06-12T02:00:18.787Z,99.90
2018-06-12T02:02:50.185Z,99.90
2018-06-12T02:05:21.503Z,99.90
2018-06-12T02:07:53.155Z,99.90
2018-06-12T02:10:24.625Z,99.90
2018-06-12T02:12:55.959Z,99.90
2018-06-12T02:15:27.385Z,99.90
2018-06-12T02:17:58.688Z,99.90
2018-06-12T02:20:29.945Z,99.90
2018-06-12T02:23:02.118Z,99.90
2018-06-12T02:25:34.142Z,99.90
2018-06-12T02:28:05.432Z,99.90
2018-06-12T02:30:37.430Z,99.90
2018-06-12T02:33:09.110Z,99.90
2018-06-12T02:35:40.741Z,99.90
2018-06-12T02:38:12.846Z,99.90
2018-06-12T02:40:44.191Z,99.90
2018-06-12T02:43:15.655Z,99.90
2018-06-12T02:45:47.052Z,99.90
2018-06-12T02:48:18.549Z,99.90
2018-06-12T02:50:49.844Z,99.90
2018-06-12T02:53:22.116Z,99.90
2018-06-12T02:55:53.756Z,99.90
2018-06-12T02:58:25.155Z,99.90
2018-06-12T03:00:56.746Z,99.90
2018-06-12T03:03:28.506Z,99.90
2018-06-12T03:05:59.792Z,99.90
2018-06-12T03:08:31.158Z,99.90
2018-06-12T03:11:02.817Z,99.90
2018-06-12T03:13:34.173Z,99.90
2018-06-12T03:16:05.579Z,99.90
2018-06-12T03:18:36.943Z,99.90
2018-06-12T03:21:08.783Z,99.90
2018-06-12T03:23:40.885Z,99.90
2018-06-12T03:26:12.439Z,99.90
2018-06-12T03:28:44.320Z,99.90
2018-06-12T03:31:15.443Z,99.90
2018-06-12T03:33:46.690Z,99.90
2018-06-12T03:36:18.094Z,99.90
2018-06-12T03:38:49.580Z,99.90
2018-06-12T03:41:21.632Z,99.90
2018-06-12T03:43:53.224Z,99.90
2018-06-12T03:46:24.770Z,99.90
2018-06-12T03:48:56.307Z,99.90
2018-06-12T03:51:28.238Z,99.90
2018-06-12T03:53:59.789Z,99.90
2018-06-12T03:56:31.812Z,99.90
2018-06-12T03:59:03.068Z,99.90
2018-06-12T04:01:34.379Z,99.90
2018-06-12T04:04:06.511Z,99.90
2018-06-12T04:06:38.968Z,99.90
2018-06-12T04:09:10.739Z,99.90
2018-06-12T04:11:43.111Z,99.90
2018-06-12T04:14:14.787Z,99.90
2018-06-12T04:16:45.825Z,99.90
2018-06-12T04:19:17.128Z,99.90
2018-06-12T04:21:48.700Z,99.90
2018-06-12T04:24:19.960Z,99.90
2018-06-12T04:26:51.087Z,99.90
2018-06-12T04:29:22.678Z,99.90
2018-06-12T04:31:54.900Z,99.90
2018-06-12T04:34:26.302Z,99.90
2018-06-12T04:36:57.725Z,99.90
2018-06-12T04:39:29.029Z,99.90
2018-06-12T04:42:00.626Z,99.90
2018-06-12T04:44:32.013Z,99.90
2018-06-12T04:47:03.508Z,99.90
2018-06-12T04:49:35.140Z,99.90
2018-06-12T04:52:06.961Z,99.90
2018-06-12T04:54:38.368Z,99.90
2018-06-12T04:57:10.496Z,99.90
2018-06-12T04:59:41.988Z,99.90
2018-06-12T05:02:14.242Z,99.90
2018-06-12T05:04:45.579Z,99.90
2018-06-12T05:07:16.564Z,99.90
2018-06-12T05:09:48.163Z,99.90
2018-06-12T05:12:19.948Z,99.90
2018-06-12T05:14:51.287Z,99.90
2018-06-12T05:17:22.483Z,99.90
2018-06-12T05:19:53.795Z,99.90
2018-06-12T05:22:25.192Z,99.90
2018-06-12T05:24:56.702Z,99.90
2018-06-12T05:27:28.347Z,99.90
2018-06-12T05:29:59.717Z,99.90
2018-06-12T05:32:31.092Z,99.90
2018-06-12T05:35:02.939Z,99.90
2018-06-12T05:37:34.169Z,99.90
2018-06-12T05:40:05.366Z,99.90
2018-06-12T05:42:37.080Z,99.90
2018-06-12T05:45:08.740Z,99.90
2018-06-12T05:47:41.774Z,99.90
2018-06-12T05:50:13.490Z,99.90
2018-06-12T05:52:45.376Z,99.90
2018-06-12T05:55:17.053Z,99.90
2018-06-12T05:57:48.435Z,99.90
2018-06-12T06:00:20.091Z,99.90
2018-06-12T06:02:51.561Z,99.90
2018-06-12T06:05:23.278Z,99.90
2018-06-12T06:07:55.747Z,99.90
2018-06-12T06:10:27.044Z,99.90
2018-06-12T06:12:58.173Z,99.90
2018-06-12T06:15:30.474Z,99.40
2018-06-12T06:18:01.589Z,99.70
2018-06-12T06:20:32.888Z,99.40
2018-06-12T06:23:04.170Z,99.30
2018-06-12T06:25:35.628Z,99.70
2018-06-12T06:28:07.301Z,99.30
2018-06-12T06:30:38.769Z,98.70
2018-06-12T06:33:10.696Z,98.30
2018-06-12T06:35:42.202Z,98.20
2018-06-12T06:38:13.685Z,98.30
2018-06-12T06:40:44.910Z,97.80
2018-06-12T06:43:16.505Z,98.00
2018-06-12T06:45:47.929Z,97.70
2018-06-12T06:48:19.430Z,97.60
2018-06-12T06:50:51.591Z,97.70
2018-06-12T06:53:22.903Z,96.90
2018-06-12T06:55:54.368Z,96.90
2018-06-12T06:58:25.786Z,96.80
2018-06-12T07:00:57.089Z,96.40
2018-06-12T07:03:28.062Z,96.30
2018-06-12T07:05:59.370Z,96.60
2018-06-12T07:11:01.634Z,96.60
2018-06-12T07:13:32.910Z,97.10
2018-06-12T07:16:04.374Z,97.00
2018-06-12T07:18:35.903Z,96.30
2018-06-12T07:21:18.895Z,96.30
2018-06-12T07:23:50.356Z,96.30
2018-06-12T07:26:21.988Z,95.70
2018-06-12T07:28:53.379Z,95.30
2018-06-12T07:31:24.904Z,94.90
2018-06-12T07:33:56.245Z,95.00
2018-06-12T07:36:28.378Z,94.30
2018-06-12T07:38:59.760Z,93.80
2018-06-12T07:41:30.969Z,93.80
2018-06-12T07:44:02.581Z,93.50
2018-06-12T07:46:34.068Z,93.20
2018-06-12T07:49:05.572Z,92.60
2018-06-12T07:51:36.831Z,92.50
2018-06-12T07:54:08.701Z,92.60
2018-06-12T07:56:40.156Z,92.00
2018-06-12T07:59:11.783Z,91.80
2018-06-12T08:01:43.454Z,91.60
2018-06-12T08:04:14.983Z,91.50
2018-06-12T08:06:47.225Z,90.80
2018-06-12T08:09:18.588Z,90.40
2018-06-12T08:11:51.003Z,90.40
2018-06-12T08:14:23.165Z,90.70
2018-06-12T08:16:55.070Z,89.70
2018-06-12T08:19:26.583Z,90.60
2018-06-12T08:21:57.992Z,89.90
2018-06-12T08:24:29.320Z,90.10
2018-06-12T08:27:00.839Z,88.00
2018-06-12T08:32:04.051Z,87.40
2018-06-12T08:34:35.299Z,89.60
2018-06-12T08:37:06.735Z,88.00
2018-06-12T08:39:38.587Z,86.60
2018-06-12T08:42:10.064Z,84.60
2018-06-12T08:44:48.636Z,82.40
2018-06-12T08:47:19.920Z,82.80
2018-06-12T08:49:51.292Z,82.00
2018-06-12T08:52:22.496Z,81.10
2018-06-12T08:54:54.556Z,79.80
2018-06-12T08:57:25.846Z,81.60
2018-06-12T08:59:57.084Z,82.50
2018-06-12T09:02:28.744Z,82.30
2018-06-12T09:04:59.916Z,81.10
2018-06-12T09:07:31.480Z,81.00
2018-06-12T09:10:02.796Z,78.40
2018-06-12T09:12:34.416Z,78.80
2018-06-12T09:15:05.685Z,79.50
2018-06-12T09:17:37.537Z,77.80
2018-06-12T09:20:09.093Z,76.80
2018-06-12T09:22:40.526Z,76.20
2018-06-12T09:25:12.495Z,76.80
2018-06-12T09:27:49.391Z,79.40
2018-06-12T09:30:20.940Z,77.30
2018-06-12T09:32:52.597Z,76.30
2018-06-12T09:35:23.867Z,74.50
2018-06-12T09:37:55.185Z,77.60
2018-06-12T09:40:26.566Z,78.30
2018-06-12T09:42:58.086Z,77.40
2018-06-12T09:45:29.596Z,75.70
2018-06-12T09:48:01.028Z,77.10
2018-06-12T10:04:44.020Z,74.50
2018-06-12T10:07:15.793Z,77.00
2018-06-12T10:09:47.060Z,75.00
2018-06-12T10:12:19.273Z,74.60
2018-06-12T10:14:50.489Z,73.80
2018-06-12T10:17:21.515Z,73.70
2018-06-12T10:19:52.828Z,73.70
2018-06-12T10:22:24.570Z,74.10
2018-06-12T10:24:55.883Z,74.20
2018-06-12T10:27:27.152Z,72.70
2018-06-12T10:29:58.523Z,71.90
2018-06-12T10:32:29.932Z,73.50
2018-06-12T10:37:32.267Z,77.00
2018-06-12T10:40:03.575Z,77.70
2018-06-12T10:42:35.147Z,78.30
2018-06-12T10:45:06.826Z,78.60
2018-06-12T10:47:38.051Z,79.40
2018-06-12T10:50:09.380Z,78.50
2018-06-12T10:52:40.793Z,79.00
2018-06-12T10:55:12.827Z,77.80
2018-06-12T10:57:44.170Z,77.50
2018-06-12T11:00:15.556Z,77.00
2018-06-12T11:02:46.890Z,78.40
2018-06-12T11:05:18.748Z,79.00
2018-06-12T11:07:50.818Z,78.20
2018-06-12T11:10:22.136Z,78.50
2018-06-12T11:12:53.379Z,79.00
2018-06-12T11:15:25.065Z,79.90
2018-06-12T11:17:56.271Z,80.80
2018-06-12T11:20:27.525Z,77.60
2018-06-12T11:22:58.987Z,77.60
2018-06-12T11:25:30.244Z,78.10
2018-06-12T11:28:01.287Z,78.70
2018-06-12T11:30:32.724Z,79.90
2018-06-12T11:33:04.350Z,79.00
2018-06-12T11:35:35.982Z,79.40
2018-06-12T11:38:07.458Z,80.50
2018-06-12T11:40:39.765Z,79.80
2018-06-12T11:43:11.028Z,80.50
2018-06-12T11:45:43.175Z,81.50
2018-06-12T11:48:15.112Z,80.60
2018-06-12T11:50:46.479Z,80.70
2018-06-12T11:53:17.764Z,80.20
2018-06-12T11:55:49.067Z,81.90
2018-06-12T11:58:20.599Z,82.20
2018-06-12T12:00:52.103Z,81.20
2018-06-12T12:03:23.808Z,80.10
2018-06-12T12:05:55.215Z,80.40
2018-06-12T12:08:26.530Z,81.50
2018-06-12T12:10:57.787Z,81.60
2018-06-12T12:13:28.948Z,81.00
2018-06-12T12:16:00.156Z,80.80
2018-06-12T12:18:31.404Z,81.50
2018-06-12T12:21:02.802Z,81.00
2018-06-12T12:23:34.112Z,82.00
2018-06-12T12:26:05.568Z,83.30
2018-06-12T12:28:37.007Z,83.10
2018-06-12T12:31:08.511Z,83.70
2018-06-12T12:33:39.711Z,84.20
2018-06-12T12:36:11.367Z,84.30
2018-06-12T12:38:42.610Z,84.60
2018-06-12T12:41:13.985Z,84.90
2018-06-12T12:43:45.964Z,85.10
2018-06-12T12:46:17.197Z,85.80
2018-06-12T12:48:48.699Z,86.40
2018-06-12T12:51:20.059Z,86.50
2018-06-12T12:53:51.411Z,88.30
2018-06-12T12:56:22.847Z,88.50
2018-06-12T12:58:54.142Z,89.00
2018-06-12T13:01:25.574Z,89.60
2018-06-12T13:03:56.936Z,90.00
2018-06-12T13:06:28.514Z,91.30
2018-06-12T13:09:00.107Z,91.90
2018-06-12T13:11:32.300Z,91.80
2018-06-12T13:14:04.195Z,92.10
2018-06-12T13:16:36.017Z,92.80
2018-06-12T13:19:07.495Z,93.00
2018-06-12T13:21:38.687Z,93.50
2018-06-12T13:24:09.751Z,93.00
2018-06-12T13:26:41.065Z,93.20
2018-06-12T13:29:13.168Z,94.20
2018-06-12T13:34:15.311Z,94.80
2018-06-12T13:36:47.001Z,94.40
2018-06-12T13:39:18.391Z,94.70
2018-06-12T13:44:20.294Z,95.50
2018-06-12T13:46:51.914Z,95.90
2018-06-12T13:49:23.373Z,96.20
2018-06-12T13:51:54.680Z,97.00
2018-06-12T13:54:25.899Z,98.00
2018-06-12T13:56:57.592Z,98.80
2018-06-12T13:59:28.943Z,99.60
2018-06-12T14:02:00.187Z,99.90
2018-06-12T14:04:31.537Z,99.90
2018-06-12T14:07:02.912Z,99.90
2018-06-12T14:09:34.271Z,99.90
2018-06-12T14:12:05.680Z,99.90
2018-06-12T14:14:36.932Z,99.90
2018-06-12T14:17:08.288Z,99.90
2018-06-12T14:19:40.004Z,99.90
2018-06-12T14:22:11.295Z,99.90
2018-06-12T14:24:42.615Z,99.90
2018-06-12T14:27:14.093Z,99.90
2018-06-12T14:29:45.304Z,99.90
2018-06-12T14:32:16.733Z,99.90
2018-06-12T14:34:48.123Z,99.90
2018-06-12T14:37:19.389Z,99.90
2018-06-12T14:39:51.223Z,99.90
2018-06-12T14:44:52.994Z,99.90
2018-06-12T14:47:24.136Z,99.90
2018-06-12T14:49:55.420Z,99.90
2018-06-12T14:52:26.616Z,99.90
2018-06-12T14:54:58.031Z,99.90
2018-06-12T14:57:29.628Z,99.90
2018-06-12T15:00:00.880Z,99.90
2018-06-12T15:02:32.239Z,99.90
2018-06-12T15:05:03.255Z,99.90
2018-06-12T15:07:34.412Z,99.90
2018-06-12T15:10:06.155Z,99.90
2018-06-12T15:12:37.690Z,99.90
2018-06-12T15:15:09.155Z,99.90
2018-06-12T15:17:40.509Z,99.90
2018-06-12T15:20:11.932Z,99.90
2018-06-12T15:22:43.323Z,99.90
2018-06-12T15:25:14.912Z,99.90
2018-06-12T15:27:46.262Z,99.90
2018-06-12T15:30:18.848Z,99.90
2018-06-12T15:32:50.023Z,99.90
2018-06-12T15:35:21.166Z,99.90
2018-06-12T15:37:53.790Z,99.90
2018-06-12T15:40:25.103Z,99.90
2018-06-12T15:42:56.773Z,99.90
2018-06-12T15:45:28.167Z,99.90
2018-06-12T15:47:59.676Z,99.90
2018-06-12T15:50:31.333Z,99.90
2018-06-12T15:53:02.765Z,99.90
2018-06-12T15:55:34.218Z,99.90
2018-06-12T15:58:05.580Z,99.90
2018-06-12T16:00:37.052Z,99.90
2018-06-12T16:03:08.544Z,99.90
2018-06-12T16:05:40.193Z,99.90
2018-06-12T16:08:11.641Z,99.90
2018-06-12T16:10:43.132Z,99.90
2018-06-12T16:13:14.697Z,99.90
2018-06-12T16:15:45.958Z,99.90
2018-06-12T16:18:17.372Z,99.90
2018-06-12T16:20:48.659Z,99.90
2018-06-12T16:23:20.069Z,99.90
2018-06-12T16:25:51.332Z,99.90
2018-06-12T16:28:22.766Z,99.90
2018-06-12T16:30:54.758Z,99.90
2018-06-12T16:33:26.195Z,99.90
2018-06-12T16:35:58.125Z,99.90
2018-06-12T16:38:29.402Z,99.90
2018-06-12T16:41:00.745Z,99.90
2018-06-12T16:43:32.184Z,99.90
2018-06-12T16:46:03.558Z,99.90
2018-06-12T16:48:34.872Z,99.90
2018-06-12T16:51:06.365Z,99.90
2018-06-12T16:53:37.752Z,99.90
2018-06-12T16:56:09.104Z,99.90
2018-06-12T16:58:40.592Z,99.90
2018-06-12T17:03:42.884Z,99.90
2018-06-12T17:06:14.798Z,99.90
2018-06-12T17:08:46.239Z,99.90
2018-06-12T17:11:17.517Z,99.90
2018-06-12T17:13:49.004Z,99.90
2018-06-12T17:16:20.851Z,99.90
2018-06-12T17:18:52.155Z,99.90
2018-06-12T17:21:23.409Z,99.90
2018-06-12T17:23:54.562Z,99.90
2018-06-12T17:26:25.946Z,99.90
2018-06-12T17:28:57.087Z,99.90
2018-06-12T17:31:28.496Z,99.90
2018-06-12T17:33:59.988Z,99.90
2018-06-12T17:36:31.226Z,99.90
2018-06-12T17:39:02.509Z,99.90
2018-06-12T17:41:33.594Z,99.90
2018-06-12T17:44:05.111Z,99.90
2018-06-12T17:46:36.643Z,99.90
2018-06-12T17:49:08.044Z,99.90
2018-06-12T17:51:39.775Z,99.90
2018-06-12T17:54:11.145Z,99.90
2018-06-12T17:56:42.523Z,99.90
2018-06-12T17:59:13.738Z,99.90
2018-06-12T18:01:45.201Z,99.90
2018-06-12T18:04:16.564Z,99.90
2018-06-12T18:06:47.993Z,99.90
2018-06-12T18:09:19.128Z,99.90
2018-06-12T18:11:50.855Z,99.90
2018-06-12T18:14:22.183Z,99.90
2018-06-12T18:16:53.641Z,99.90
2018-06-12T18:19:25.628Z,99.90
2018-06-12T18:21:57.200Z,99.90
2018-06-12T18:24:28.715Z,99.90
2018-06-12T18:27:00.012Z,99.90
2018-06-12T18:29:31.348Z,99.90
2018-06-12T18:32:02.803Z,99.90
2018-06-12T18:34:33.809Z,99.90
2018-06-12T18:37:05.360Z,99.90
2018-06-12T18:39:36.689Z,99.90
2018-06-12T18:42:08.077Z,99.90
2018-06-12T18:44:39.868Z,99.90
2018-06-12T18:47:11.415Z,99.90
2018-06-12T18:49:42.884Z,99.90
2018-06-12T18:52:15.238Z,99.90
2018-06-12T18:54:46.847Z,99.90
2018-06-12T18:57:18.460Z,99.90
2018-06-12T18:59:49.918Z,99.90
2018-06-12T19:02:21.905Z,99.90
2018-06-12T19:04:53.799Z,99.90
2018-06-12T19:07:25.304Z,99.90
2018-06-12T19:12:28.897Z,99.90
2018-06-12T19:15:00.463Z,99.90
2018-06-12T19:17:32.067Z,99.90
2018-06-12T19:20:03.563Z,99.90
2018-06-12T19:22:35.523Z,99.90
2018-06-12T19:25:07.333Z,99.90
2018-06-12T19:27:39.143Z,99.90
2018-06-12T19:30:10.742Z,99.90
2018-06-12T19:32:42.216Z,99.90
2018-06-12T19:35:13.849Z,99.90
2018-06-12T19:37:45.120Z,99.90
2018-06-12T19:40:16.414Z,99.90
2018-06-12T19:42:48.039Z,99.90
2018-06-12T19:45:19.339Z,99.90
2018-06-12T19:47:50.791Z,99.90
2018-06-12T19:50:22.320Z,99.90
2018-06-12T19:52:54.257Z,99.90
2018-06-12T19:55:25.999Z,99.90
2018-06-12T19:57:57.223Z,99.90
2018-06-12T20:00:28.707Z,99.90
2018-06-12T20:03:00.249Z,99.90
2018-06-12T20:05:32.072Z,99.90
2018-06-12T20:08:03.574Z,99.90
2018-06-12T20:10:35.636Z,99.90
2018-06-12T20:13:07.368Z,99.90
2018-06-12T20:15:38.735Z,99.90
2018-06-12T20:18:09.992Z,99.90
2018-06-12T20:20:41.460Z,99.90
2018-06-12T20:23:13.168Z,99.90
2018-06-12T20:25:44.523Z,99.90
2018-06-12T20:28:16.748Z,99.90
2018-06-12T20:30:48.480Z,99.90
2018-06-12T20:33:19.995Z,99.90
2018-06-12T20:35:51.533Z,99.90
2018-06-12T20:38:22.908Z,99.90
2018-06-12T20:40:54.386Z,99.90
2018-06-12T20:43:25.591Z,99.90
2018-06-12T20:45:57.217Z,99.90
2018-06-12T20:48:28.988Z,99.90
2018-06-12T20:51:00.692Z,99.90
2018-06-12T20:53:32.709Z,99.90
2018-06-12T20:56:04.884Z,99.90
2018-06-12T20:58:36.972Z,99.90
2018-06-12T21:01:10.312Z,99.90
2018-06-12T21:03:43.155Z,99.90
2018-06-12T21:06:14.726Z,99.90
2018-06-12T21:08:46.631Z,99.90
2018-06-12T21:11:18.876Z,99.90
2018-06-12T21:13:50.448Z,99.90
2018-06-12T21:16:21.853Z,99.90
2018-06-12T21:18:53.279Z,99.90
2018-06-12T21:21:24.839Z,99.90
2018-06-12T21:23:56.784Z,99.90
2018-06-12T21:26:28.099Z,99.90
2018-06-12T21:28:59.788Z,99.90
2018-06-12T21:31:31.992Z,99.90
2018-06-12T21:34:05.732Z,99.90
2018-06-12T21:36:37.391Z,99.90
2018-06-12T21:39:09.651Z,99.90
2018-06-12T21:41:41.535Z,99.90
2018-06-12T21:44:13.116Z,99.90
2018-06-12T21:46:44.774Z,99.90
2018-06-12T21:49:18.055Z,99.90
2018-06-12T21:51:49.115Z,99.90
2018-06-12T21:54:20.365Z,99.90
2018-06-12T21:56:51.700Z,99.90
2018-06-12T21:59:23.042Z,99.90
2018-06-12T22:01:54.507Z,99.90
2018-06-12T22:04:26.560Z,99.90
2018-06-12T22:06:57.645Z,99.90
2018-06-12T22:09:28.844Z,99.90
2018-06-12T22:12:00.012Z,99.90
2018-06-12T22:17:02.442Z,99.90
2018-06-12T22:19:34.440Z,99.90
2018-06-12T22:22:05.900Z,99.90
2018-06-12T22:24:37.359Z,99.90
2018-06-12T22:27:09.120Z,99.90
2018-06-12T22:29:40.617Z,99.90
2018-06-12T22:32:11.785Z,99.90
2018-06-12T22:34:43.048Z,99.90
2018-06-12T22:37:14.302Z,99.90
2018-06-12T22:39:45.607Z,99.90
2018-06-12T22:42:16.695Z,99.90
2018-06-12T22:44:47.847Z,99.90
2018-06-12T22:47:19.205Z,99.90
2018-06-12T22:49:51.074Z,99.90
2018-06-12T22:52:22.981Z,99.90
2018-06-12T22:54:54.840Z,99.90
2018-06-12T22:57:26.528Z,99.90
2018-06-12T22:59:57.982Z,99.90
2018-06-12T23:02:30.248Z,99.90
2018-06-12T23:05:01.808Z,99.90
2018-06-12T23:07:33.101Z,99.90
2018-06-12T23:10:04.756Z,99.90
2018-06-12T23:12:36.058Z,99.90
2018-06-12T23:15:07.579Z,99.90
2018-06-12T23:17:39.183Z,99.90
2018-06-12T23:20:26.529Z,99.90
2018-06-12T23:22:57.812Z,99.90
2018-06-12T23:25:29.338Z,99.90
2018-06-12T23:28:00.727Z,99.90
2018-06-12T23:30:31.950Z,99.90
2018-06-12T23:33:03.345Z,99.90
2018-06-12T23:35:34.600Z,99.90
2018-06-12T23:38:06.320Z,99.90
2018-06-12T23:40:37.756Z,99.90
2018-06-12T23:43:08.991Z,99.90
2018-06-12T23:45:40.107Z,99.90
2018-06-12T23:48:11.652Z,99.90
2018-06-12T23:50:42.911Z,99.90
2018-06-12T23:53:14.308Z,99.90
2018-06-12T23:55:45.808Z,99.90
2018-06-12T23:58:16.999Z,99.90
